createdAt,value
2022-09-02T00:03:50.525Z,1000.86
2022-09-02T00:08:50.474Z,1000.82
2022-09-02T00:13:50.413Z,1000.80
2022-09-02T00:18:50.380Z,1000.75
2022-09-02T00:23:50.378Z,1000.74
2022-09-02T00:28:55.780Z,1000.67
2022-09-02T00:33:51.275Z,1000.63
2022-09-02T00:38:50.236Z,1000.62
2022-09-02T00:43:50.107Z,1000.63
2022-09-02T00:48:50.038Z,1000.65
2022-09-02T00:53:49.998Z,1000.58
2022-09-02T00:58:49.947Z,1000.47
2022-09-02T01:03:49.863Z,1000.47
2022-09-02T01:08:49.822Z,1000.48
2022-09-02T01:13:49.903Z,1000.46
2022-09-02T01:18:49.927Z,1000.41
2022-09-02T01:23:49.663Z,1000.37
2022-09-02T01:28:49.695Z,1000.38
2022-09-02T01:33:58.494Z,1000.36
2022-09-02T01:38:49.494Z,1000.34
2022-09-02T01:43:49.430Z,1000.32
2022-09-02T01:48:49.383Z,1000.24
2022-09-02T01:53:49.312Z,1000.25
2022-09-02T01:58:49.259Z,1000.21
2022-09-02T02:03:49.209Z,1000.09
2022-09-02T02:08:49.223Z,1000.08
2022-09-02T02:13:49.090Z,1000.15
2022-09-02T02:18:49.071Z,1000.20
2022-09-02T02:23:49.017Z,1000.14
2022-09-02T02:28:48.934Z,1000.09
2022-09-02T02:33:48.870Z,1000.08
2022-09-02T02:38:48.809Z,1000.11
2022-09-02T02:43:48.829Z,1000.07
2022-09-02T02:48:48.714Z,1000.11
2022-09-02T02:53:49.740Z,1000.09
2022-09-02T02:58:48.587Z,1000.07
2022-09-02T03:03:48.622Z,1000.03
2022-09-02T03:08:48.562Z,1000.03
2022-09-02T03:13:48.441Z,1000.04
2022-09-02T03:18:48.368Z,1000.03
2022-09-02T03:23:48.308Z,1000.03
2022-09-02T03:28:48.271Z,1000.03
2022-09-02T03:33:48.198Z,999.98
2022-09-02T03:38:48.187Z,999.99
2022-09-02T03:43:48.112Z,999.98
2022-09-02T03:48:48.041Z,999.97
2022-09-02T03:53:47.978Z,999.91
2022-09-02T03:58:47.959Z,999.91
2022-09-02T04:03:47.867Z,999.93
2022-09-02T04:08:47.829Z,999.91
2022-09-02T04:13:47.765Z,999.87
2022-09-02T04:18:47.706Z,999.86
2022-09-02T04:23:47.669Z,999.89
2022-09-02T04:28:47.666Z,999.90
2022-09-02T04:33:47.544Z,999.90
2022-09-02T04:38:47.872Z,999.86
2022-09-02T04:43:47.439Z,999.83
2022-09-02T04:48:47.459Z,999.82
2022-09-02T04:53:47.328Z,999.82
2022-09-02T04:58:47.279Z,999.90
2022-09-02T05:03:47.205Z,999.86
2022-09-02T05:08:47.160Z,999.86
2022-09-02T05:13:47.147Z,999.88
2022-09-02T05:18:47.094Z,999.87
2022-09-02T05:23:46.981Z,999.91
2022-09-02T05:28:46.969Z,999.89
2022-09-02T05:33:46.862Z,999.89
2022-09-02T05:38:46.854Z,999.87
2022-09-02T05:43:46.753Z,999.80
2022-09-02T05:48:46.724Z,999.81
2022-09-02T05:53:46.751Z,999.73
2022-09-02T05:58:46.612Z,999.77
2022-09-02T06:03:46.694Z,999.78
2022-09-02T06:08:46.586Z,999.76
2022-09-02T06:13:46.525Z,999.76
2022-09-02T06:18:46.453Z,999.74
2022-09-02T06:23:46.312Z,999.78
2022-09-02T06:28:46.286Z,999.71
2022-09-02T06:33:46.221Z,999.67
2022-09-02T06:38:46.235Z,999.66
2022-09-02T06:43:46.118Z,999.70
2022-09-02T06:48:46.058Z,999.68
2022-09-02T06:53:46.008Z,999.67
2022-09-02T06:58:45.944Z,999.67
2022-09-02T07:03:45.922Z,999.70
2022-09-02T07:08:45.877Z,999.68
2022-09-02T07:13:45.819Z,999.68
2022-09-02T07:18:45.849Z,999.64
2022-09-02T07:23:45.699Z,999.67
2022-09-02T07:28:45.648Z,999.67
2022-09-02T07:33:45.536Z,999.59
2022-09-02T07:38:54.350Z,999.59
2022-09-02T07:43:48.435Z,999.55
2022-09-02T07:48:46.427Z,999.54
2022-09-02T07:53:45.317Z,999.55
2022-09-02T07:58:45.279Z,999.47
2022-09-02T08:03:45.204Z,999.60
2022-09-02T08:08:45.154Z,999.47
2022-09-02T08:13:45.113Z,999.45
2022-09-02T08:18:45.037Z,999.46
2022-09-02T08:23:45.347Z,999.47
2022-09-02T08:28:44.938Z,999.47
2022-09-02T08:33:44.892Z,999.41
2022-09-02T08:38:44.820Z,999.44
2022-09-02T08:43:44.795Z,999.35
2022-09-02T08:48:44.794Z,999.24
2022-09-02T08:53:44.696Z,999.29
2022-09-02T08:58:44.620Z,999.26
2022-09-02T09:03:44.599Z,999.26
2022-09-02T09:08:45.558Z,999.13
2022-09-02T09:13:44.567Z,999.13
2022-09-02T09:18:44.417Z,999.12
2022-09-02T09:23:44.436Z,999.08
2022-09-02T09:28:44.309Z,998.99
2022-09-02T09:33:44.337Z,998.92
2022-09-02T09:38:44.222Z,998.76
2022-09-02T09:43:44.167Z,998.92
2022-09-02T09:48:44.182Z,998.66
2022-09-02T09:53:44.062Z,998.68
2022-09-02T09:58:44.103Z,998.66
2022-09-02T10:03:43.950Z,998.74
2022-09-02T10:08:43.896Z,998.59
2022-09-02T10:13:43.858Z,998.64
2022-09-02T10:18:44.810Z,998.49
2022-09-02T10:23:44.733Z,998.43
2022-09-02T10:28:43.685Z,998.55
2022-09-02T10:33:43.622Z,998.45
2022-09-02T10:38:43.579Z,998.45
2022-09-02T10:43:43.523Z,998.38
2022-09-02T10:48:43.478Z,998.43
2022-09-02T10:53:43.420Z,998.49
2022-09-02T10:58:43.398Z,998.32
2022-09-02T11:03:43.430Z,998.39
2022-09-02T11:08:43.266Z,998.39
2022-09-02T11:13:43.201Z,998.38
2022-09-02T11:18:43.150Z,998.30
2022-09-02T11:23:43.103Z,998.32
2022-09-02T11:28:43.152Z,998.31
2022-09-02T11:33:42.999Z,998.29
2022-09-02T11:38:42.957Z,998.23
2022-09-02T11:43:42.975Z,998.22
2022-09-02T11:48:42.876Z,998.15
2022-09-02T11:53:42.901Z,998.33
2022-09-02T11:58:42.723Z,998.14
2022-09-02T12:04:06.770Z,998.05
2022-09-02T12:08:43.668Z,997.96
2022-09-02T12:13:42.609Z,997.96
2022-09-02T12:18:42.534Z,997.77
2022-09-02T12:23:42.456Z,997.84
2022-09-02T12:28:42.419Z,997.86
2022-09-02T12:33:42.364Z,997.82
2022-09-02T12:38:42.307Z,997.66
2022-09-02T12:43:42.278Z,997.49
2022-09-02T12:48:42.273Z,997.51
2022-09-02T12:53:42.166Z,997.47
2022-09-02T12:58:42.135Z,997.40
2022-09-02T13:03:42.076Z,997.23
2022-09-02T13:08:42.029Z,997.25
2022-09-02T13:13:41.981Z,997.16
2022-09-02T13:18:41.918Z,997.18
2022-09-02T13:23:41.870Z,997.17
2022-09-02T13:28:41.862Z,997.04
2022-09-02T13:33:42.703Z,997.17
2022-09-02T13:38:51.590Z,997.11
2022-09-02T13:43:41.741Z,996.88
2022-09-02T13:48:41.641Z,997.03
2022-09-02T13:53:58.986Z,996.98
2022-09-02T13:58:42.621Z,996.93
2022-09-02T14:03:41.543Z,996.91
2022-09-02T14:08:41.416Z,996.71
2022-09-02T14:13:41.398Z,996.75
2022-09-02T14:18:41.309Z,996.70
2022-09-02T14:23:41.336Z,996.62
2022-09-02T14:28:41.235Z,996.67
2022-09-02T14:33:41.152Z,996.48
2022-09-02T14:38:41.089Z,996.41
2022-09-02T14:43:41.039Z,996.39
2022-09-02T14:48:41.008Z,996.41
2022-09-02T14:53:40.972Z,996.40
2022-09-02T14:58:40.897Z,996.36
2022-09-02T15:03:40.824Z,996.31
2022-09-02T15:08:40.888Z,996.23
2022-09-02T15:13:40.733Z,996.27
2022-09-02T15:18:40.770Z,996.21
2022-09-02T15:23:41.180Z,996.18
2022-09-02T15:28:40.560Z,996.21
2022-09-02T15:33:41.588Z,996.25
2022-09-02T15:38:40.510Z,996.20
2022-09-02T15:43:40.391Z,996.14
2022-09-02T15:48:40.345Z,996.17
2022-09-02T15:53:40.273Z,996.18
2022-09-02T15:58:40.223Z,996.13
2022-09-02T16:03:40.185Z,996.12
2022-09-02T16:08:40.105Z,996.10
2022-09-02T16:13:40.056Z,995.99
2022-09-02T16:18:40.028Z,996.00
2022-09-02T16:23:39.947Z,995.96
2022-09-02T16:28:39.910Z,995.93
2022-09-02T16:33:39.853Z,995.93
2022-09-02T16:38:39.839Z,995.99
2022-09-02T16:43:39.742Z,995.99
2022-09-02T16:48:39.682Z,995.92
2022-09-02T16:53:39.726Z,995.89
2022-09-02T16:58:39.664Z,995.87
2022-09-02T17:03:39.605Z,995.82
2022-09-02T17:08:39.452Z,995.85
2022-09-02T17:13:39.588Z,995.87
2022-09-02T17:18:41.488Z,995.82
2022-09-02T17:23:39.297Z,995.87
2022-09-02T17:28:39.239Z,995.89
2022-09-02T17:33:39.176Z,995.84
2022-09-02T17:38:39.116Z,995.85
2022-09-02T17:43:39.081Z,995.87
2022-09-02T17:48:59.335Z,995.88
2022-09-02T17:53:40.018Z,995.90
2022-09-02T17:58:38.941Z,995.89
2022-09-02T18:03:39.032Z,995.95
2022-09-02T18:08:38.800Z,995.89
2022-09-02T18:13:38.862Z,995.86
2022-09-02T18:18:38.702Z,995.79
2022-09-02T18:23:38.663Z,995.81
2022-09-02T18:28:38.614Z,995.81
2022-09-02T18:33:38.520Z,995.86
2022-09-02T18:38:38.474Z,995.86
2022-09-02T18:43:38.593Z,995.86
2022-09-02T18:48:38.366Z,995.96
2022-09-02T18:53:38.292Z,995.95
2022-09-02T18:58:38.241Z,995.94
2022-09-02T19:03:38.263Z,996.02
2022-09-02T19:08:38.224Z,996.00
2022-09-02T19:13:38.096Z,996.06
2022-09-02T19:18:38.012Z,996.09
2022-09-02T19:23:38.005Z,996.10
2022-09-02T19:28:38.062Z,996.06
2022-09-02T19:33:37.949Z,996.13
2022-09-02T19:38:37.904Z,996.09
2022-09-02T19:43:46.706Z,996.14
2022-09-02T19:48:37.693Z,996.12
2022-09-02T19:53:37.654Z,996.15
2022-09-02T19:58:37.614Z,996.15
2022-09-02T20:03:37.575Z,996.17
2022-09-02T20:08:37.495Z,996.15
2022-09-02T20:13:41.384Z,996.18
2022-09-02T20:18:37.371Z,996.22
2022-09-02T20:23:37.403Z,996.17
2022-09-02T20:28:37.241Z,996.17
2022-09-02T20:33:37.243Z,996.19
2022-09-02T20:38:38.144Z,996.11
2022-09-02T20:43:37.206Z,996.06
2022-09-02T20:48:37.126Z,996.07
2022-09-02T20:53:37.030Z,995.97
2022-09-02T20:58:36.936Z,996.03
2022-09-02T21:03:37.197Z,996.09
2022-09-02T21:08:36.905Z,995.98
2022-09-02T21:13:36.831Z,995.96
2022-09-02T21:18:40.139Z,995.95
2022-09-02T21:23:36.726Z,995.93
2022-09-02T21:28:36.615Z,995.95
2022-09-02T21:33:36.577Z,995.91
2022-09-02T21:38:36.616Z,995.94
2022-09-02T21:43:36.537Z,995.95
2022-09-02T21:48:36.442Z,995.97
2022-09-02T21:53:38.487Z,995.99
2022-09-02T21:58:36.763Z,995.94
2022-09-02T22:03:37.318Z,995.91
2022-09-02T22:08:38.184Z,995.89
2022-09-02T22:13:36.118Z,995.90
2022-09-02T22:18:36.093Z,995.82
2022-09-02T22:23:36.035Z,995.85
2022-09-02T22:28:35.976Z,995.83
2022-09-02T22:33:37.033Z,995.81
2022-09-02T22:38:36.072Z,995.71
2022-09-02T22:43:41.902Z,995.73
2022-09-02T22:48:36.735Z,995.70
2022-09-02T22:53:35.661Z,995.73
2022-09-02T22:58:35.587Z,995.71
2022-09-02T23:03:35.598Z,995.70
2022-09-02T23:08:35.509Z,995.70
2022-09-02T23:13:35.443Z,995.73
2022-09-02T23:18:35.363Z,995.67
2022-09-02T23:23:35.521Z,995.65
2022-09-02T23:28:35.409Z,995.63
2022-09-02T23:33:35.235Z,995.65
2022-09-02T23:38:35.151Z,995.60
2022-09-02T23:43:35.094Z,995.57
2022-09-02T23:48:35.034Z,995.59
2022-09-02T23:53:34.984Z,995.50
2022-09-02T23:58:35.020Z,995.51
